This is the latest recevied weather packets stored in our database for station/object W0VI. If no packets are shown the sender has not sent any weather packets the latest 1 day(s).
| Time | Temp. | Humidity | Pressure | Rain* | Wind** | Luminosity | Snow |
|---|---|---|---|---|---|---|---|
| 1778075858 | 3.89° C | 57% | 1016.9 hPa | 0 mm | - | 196 W/m² | - |
| 1778075554 | 3.89° C | 58% | 1016.8 hPa | 0 mm | - | 199 W/m² | - |
| 1778074645 | 3.33° C | 58% | 1016.7 hPa | 0 mm | - | 186 W/m² | - |
| 1778072826 | 3.33° C | 60% | 1016.6 hPa | 0 mm | - | 260 W/m² | - |
| 1778069196 | 1.11° C | 71% | 1015.9 hPa | 0 mm | - | 48 W/m² | - |
| 1778068893 | 1.11° C | 72% | 1015.6 hPa | 0 mm | - | 43 W/m² | - |
| 1778067986 | 0° C | 75% | 1015.5 hPa | 0 mm | - | 27 W/m² | - |
| 1778066775 | 0° C | 76% | 1015.3 hPa | 0 mm | - | 18 W/m² | - |
| 1778065263 | -0.56° C | 76% | 1015.7 hPa | 0 mm | - | 3 W/m² | - |
| 1778064656 | -0.56° C | 76% | 1015.6 hPa | 0 mm | - | 0 W/m² | - |
| 1778063445 | -0.56° C | 75% | 1015.1 hPa | 0 mm | - | 0 W/m² | - |
| 1778063144 | -0.56° C | 75% | 1015 hPa | 0 mm | - | 0 W/m² | - |
| 1778062841 | -0.56° C | 75% | 1014.9 hPa | 0 mm | - | 0 W/m² | - |
| 1778062537 | -0.56° C | 75% | 1014.9 hPa | 0 mm | - | 0 W/m² | - |
| 1778061329 | -0.56° C | 74% | 1014.9 hPa | 0 mm | - | 0 W/m² | - |
| 1778060723 | -0.56° C | 74% | 1014.8 hPa | 0 mm | - | 0 W/m² | - |
| 1778058605 | -0.56° C | 73% | 1014.9 hPa | 0 mm | - | 0 W/m² | - |
| 1778057696 | 0° C | 73% | 1014.8 hPa | 0 mm | - | 0 W/m² | - |
| 1778057392 | 0° C | 73% | 1014.6 hPa | 0 mm | - | 0 W/m² | - |
| 1778057089 | 0° C | 73% | 1014.6 hPa | 0 mm | - | 0 W/m² | - |
| 1778056483 | 0° C | 73% | 1014.7 hPa | 0 mm | - | 0 W/m² | - |
| 1778056180 | 0° C | 73% | 1014.8 hPa | 0 mm | - | 0 W/m² | - |
| 1778055877 | 0° C | 73% | 1014.5 hPa | 0 mm | - | 0 W/m² | - |
| 1778054968 | 0° C | 72% | 1014.8 hPa | 0 mm | - | 0 W/m² | - |
| 1778054665 | 0° C | 71% | 1014.8 hPa | 0 mm | - | 0 W/m² | - |
* Rain latest hour (hover to see other rain measurements)
** Current wind speed in m/s (hover to see current wind gust speed)